sensor_id;sensor_type;location;lat;lon;timestamp;temperature;humidity
19829;DHT22;10075;50.924;4.396;2023-04-01T00:01:58;9.90;99.90
19829;DHT22;10075;50.924;4.396;2023-04-01T00:04:27;9.90;99.90
19829;DHT22;10075;50.924;4.396;2023-04-01T00:06:54;9.90;99.90
19829;DHT22;10075;50.924;4.396;2023-04-01T00:09:21;9.90;99.90
19829;DHT22;10075;50.924;4.396;2023-04-01T00:11:48;10.00;99.90
19829;DHT22;10075;50.924;4.396;2023-04-01T00:14:15;9.90;99.90
19829;DHT22;10075;50.924;4.396;2023-04-01T00:16:42;9.90;99.90
19829;DHT22;10075;50.924;4.396;2023-04-01T00:19:09;9.90;99.90
19829;DHT22;10075;50.924;4.396;2023-04-01T00:21:37;9.90;99.90
19829;DHT22;10075;50.924;4.396;2023-04-01T00:24:04;10.00;99.90
19829;DHT22;10075;50.924;4.396;2023-04-01T00:26:31;10.00;99.90
19829;DHT22;10075;50.924;4.396;2023-04-01T00:28:58;10.00;99.90
19829;DHT22;10075;50.924;4.396;2023-04-01T00:31:26;10.00;99.90
19829;DHT22;10075;50.924;4.396;2023-04-01T00:33:53;10.00;99.90
19829;DHT22;10075;50.924;4.396;2023-04-01T00:36:21;10.10;99.90
19829;DHT22;10075;50.924;4.396;2023-04-01T00:38:50;10.10;99.90
19829;DHT22;10075;50.924;4.396;2023-04-01T00:41:18;10.10;99.90
19829;DHT22;10075;50.924;4.396;2023-04-01T00:43:49;10.10;99.90
19829;DHT22;10075;50.924;4.396;2023-04-01T00:46:16;10.10;99.90
19829;DHT22;10075;50.924;4.396;2023-04-01T00:48:47;10.10;99.90
19829;DHT22;10075;50.924;4.396;2023-04-01T00:51:17;10.00;99.90
19829;DHT22;10075;50.924;4.396;2023-04-01T00:53:48;10.00;99.90
19829;DHT22;10075;50.924;4.396;2023-04-01T00:56:19;9.90;99.90
19829;DHT22;10075;50.924;4.396;2023-04-01T00:58:51;9.90;99.90
19829;DHT22;10075;50.924;4.396;2023-04-01T01:01:20;9.90;99.90
19829;DHT22;10075;50.924;4.396;2023-04-01T01:03:48;10.00;99.90
19829;DHT22;10075;50.924;4.396;2023-04-01T01:06:25;10.00;99.90
19829;DHT22;10075;50.924;4.396;2023-04-01T01:09:12;10.00;99.90
19829;DHT22;10075;50.924;4.396;2023-04-01T01:11:45;10.00;99.90
19829;DHT22;10075;50.924;4.396;2023-04-01T01:14:29;10.00;99.90
19829;DHT22;10075;50.924;4.396;2023-04-01T01:17:06;10.00;99.90
19829;DHT22;10075;50.924;4.396;2023-04-01T01:19:57;10.00;99.90
19829;DHT22;10075;50.924;4.396;2023-04-01T01:22:43;10.00;99.90
19829;DHT22;10075;50.924;4.396;2023-04-01T01:25:29;10.00;99.90
19829;DHT22;10075;50.924;4.396;2023-04-01T01:28:06;10.10;99.90
19829;DHT22;10075;50.924;4.396;2023-04-01T01:30:44;10.10;99.90
19829;DHT22;10075;50.924;4.396;2023-04-01T01:33:55;10.10;99.90
19829;DHT22;10075;50.924;4.396;2023-04-01T01:36:31;10.10;99.90
19829;DHT22;10075;50.924;4.396;2023-04-01T01:39:01;10.10;99.90
19829;DHT22;10075;50.924;4.396;2023-04-01T01:41:30;10.10;99.90
19829;DHT22;10075;50.924;4.396;2023-04-01T01:44:00;10.10;99.90
19829;DHT22;10075;50.924;4.396;2023-04-01T01:46:31;10.10;99.90
19829;DHT22;10075;50.924;4.396;2023-04-01T01:49:00;10.10;99.90
19829;DHT22;10075;50.924;4.396;2023-04-01T01:51:29;10.10;99.90
19829;DHT22;10075;50.924;4.396;2023-04-01T01:53:56;10.10;99.90
19829;DHT22;10075;50.924;4.396;2023-04-01T01:56:26;10.00;99.90
19829;DHT22;10075;50.924;4.396;2023-04-01T01:58:57;10.00;99.90
19829;DHT22;10075;50.924;4.396;2023-04-01T02:01:29;9.90;99.90
19829;DHT22;10075;50.924;4.396;2023-04-01T02:03:58;9.90;99.90
19829;DHT22;10075;50.924;4.396;2023-04-01T02:06:30;9.90;99.90
19829;DHT22;10075;50.924;4.396;2023-04-01T02:09:01;9.90;99.90
19829;DHT22;10075;50.924;4.396;2023-04-01T02:11:32;9.90;99.90
19829;DHT22;10075;50.924;4.396;2023-04-01T02:14:03;9.90;99.90
19829;DHT22;10075;50.924;4.396;2023-04-01T02:16:34;9.90;99.90
19829;DHT22;10075;50.924;4.396;2023-04-01T02:19:03;9.90;99.90
19829;DHT22;10075;50.924;4.396;2023-04-01T02:21:35;9.80;99.90
19829;DHT22;10075;50.924;4.396;2023-04-01T02:24:08;9.80;99.90
19829;DHT22;10075;50.924;4.396;2023-04-01T02:26:36;9.80;99.90
19829;DHT22;10075;50.924;4.396;2023-04-01T02:29:03;9.80;99.90
19829;DHT22;10075;50.924;4.396;2023-04-01T02:31:32;9.80;99.90
19829;DHT22;10075;50.924;4.396;2023-04-01T02:34:00;9.80;99.90
19829;DHT22;10075;50.924;4.396;2023-04-01T02:36:28;9.80;99.90
19829;DHT22;10075;50.924;4.396;2023-04-01T02:38:57;9.80;99.90
19829;DHT22;10075;50.924;4.396;2023-04-01T02:41:28;9.80;99.90
19829;DHT22;10075;50.924;4.396;2023-04-01T02:43:54;9.80;99.90
19829;DHT22;10075;50.924;4.396;2023-04-01T02:46:22;9.80;99.90
19829;DHT22;10075;50.924;4.396;2023-04-01T02:48:49;9.90;99.90
19829;DHT22;10075;50.924;4.396;2023-04-01T02:51:16;9.90;99.90
19829;DHT22;10075;50.924;4.396;2023-04-01T02:53:43;9.90;99.90
19829;DHT22;10075;50.924;4.396;2023-04-01T02:56:12;9.90;99.90
19829;DHT22;10075;50.924;4.396;2023-04-01T02:58:39;9.80;99.90
19829;DHT22;10075;50.924;4.396;2023-04-01T03:01:06;9.80;99.90
19829;DHT22;10075;50.924;4.396;2023-04-01T03:03:33;9.80;99.90
19829;DHT22;10075;50.924;4.396;2023-04-01T03:06:05;9.80;99.90
19829;DHT22;10075;50.924;4.396;2023-04-01T03:08:32;9.80;99.90
19829;DHT22;10075;50.924;4.396;2023-04-01T03:10:59;9.80;99.90
19829;DHT22;10075;50.924;4.396;2023-04-01T03:13:27;9.80;99.90
19829;DHT22;10075;50.924;4.396;2023-04-01T03:15:54;9.90;99.90
19829;DHT22;10075;50.924;4.396;2023-04-01T03:18:21;9.90;99.90
19829;DHT22;10075;50.924;4.396;2023-04-01T03:20:48;9.80;99.90
19829;DHT22;10075;50.924;4.396;2023-04-01T03:23:15;9.80;99.90
19829;DHT22;10075;50.924;4.396;2023-04-01T03:25:44;9.90;99.90
19829;DHT22;10075;50.924;4.396;2023-04-01T03:28:11;9.80;99.90
19829;DHT22;10075;50.924;4.396;2023-04-01T03:30:40;9.80;99.90
19829;DHT22;10075;50.924;4.396;2023-04-01T03:33:07;9.80;99.90
19829;DHT22;10075;50.924;4.396;2023-04-01T03:35:34;9.90;99.90
19829;DHT22;10075;50.924;4.396;2023-04-01T03:38:01;9.90;99.90
19829;DHT22;10075;50.924;4.396;2023-04-01T03:40:28;9.90;99.90
19829;DHT22;10075;50.924;4.396;2023-04-01T03:42:55;9.90;99.90
19829;DHT22;10075;50.924;4.396;2023-04-01T03:45:22;9.80;99.90
19829;DHT22;10075;50.924;4.396;2023-04-01T03:47:51;9.80;99.90
19829;DHT22;10075;50.924;4.396;2023-04-01T03:50:18;9.70;99.90
19829;DHT22;10075;50.924;4.396;2023-04-01T03:52:45;9.70;99.90
19829;DHT22;10075;50.924;4.396;2023-04-01T03:55:12;9.80;99.90
19829;DHT22;10075;50.924;4.396;2023-04-01T03:57:39;9.80;99.90
19829;DHT22;10075;50.924;4.396;2023-04-01T04:00:07;9.80;99.90
19829;DHT22;10075;50.924;4.396;2023-04-01T04:02:35;9.80;99.90
19829;DHT22;10075;50.924;4.396;2023-04-01T04:05:04;9.80;99.90
19829;DHT22;10075;50.924;4.396;2023-04-01T04:07:34;9.70;99.90
19829;DHT22;10075;50.924;4.396;2023-04-01T04:10:01;9.80;99.90
19829;DHT22;10075;50.924;4.396;2023-04-01T04:12:28;9.70;99.90
19829;DHT22;10075;50.924;4.396;2023-04-01T04:14:55;9.80;99.90
19829;DHT22;10075;50.924;4.396;2023-04-01T04:17:22;9.70;99.90
19829;DHT22;10075;50.924;4.396;2023-04-01T04:19:49;9.80;99.90
19829;DHT22;10075;50.924;4.396;2023-04-01T04:22:17;9.80;99.90
19829;DHT22;10075;50.924;4.396;2023-04-01T04:24:44;9.70;99.90
19829;DHT22;10075;50.924;4.396;2023-04-01T04:27:11;9.80;99.90
19829;DHT22;10075;50.924;4.396;2023-04-01T04:29:38;9.80;99.90
19829;DHT22;10075;50.924;4.396;2023-04-01T04:32:06;9.80;99.90
19829;DHT22;10075;50.924;4.396;2023-04-01T04:34:33;9.80;99.90
19829;DHT22;10075;50.924;4.396;2023-04-01T04:37:00;9.80;99.90
19829;DHT22;10075;50.924;4.396;2023-04-01T04:39:29;9.90;99.90
19829;DHT22;10075;50.924;4.396;2023-04-01T04:41:56;9.90;99.90
19829;DHT22;10075;50.924;4.396;2023-04-01T04:44:23;9.90;99.90
19829;DHT22;10075;50.924;4.396;2023-04-01T04:46:50;9.90;99.90
19829;DHT22;10075;50.924;4.396;2023-04-01T04:49:17;9.90;99.90
19829;DHT22;10075;50.924;4.396;2023-04-01T04:51:44;9.80;99.90
19829;DHT22;10075;50.924;4.396;2023-04-01T04:54:11;9.80;99.90
19829;DHT22;10075;50.924;4.396;2023-04-01T04:56:40;9.80;99.90
19829;DHT22;10075;50.924;4.396;2023-04-01T04:59:07;9.80;99.90
19829;DHT22;10075;50.924;4.396;2023-04-01T05:01:34;9.80;99.90
19829;DHT22;10075;50.924;4.396;2023-04-01T05:04:01;9.80;99.90
19829;DHT22;10075;50.924;4.396;2023-04-01T05:06:28;9.90;99.90
19829;DHT22;10075;50.924;4.396;2023-04-01T05:08:57;10.00;99.90
19829;DHT22;10075;50.924;4.396;2023-04-01T05:11:24;9.90;99.90
19829;DHT22;10075;50.924;4.396;2023-04-01T05:13:53;9.90;99.90
19829;DHT22;10075;50.924;4.396;2023-04-01T05:16:20;9.90;99.90
19829;DHT22;10075;50.924;4.396;2023-04-01T05:18:47;9.90;99.90
19829;DHT22;10075;50.924;4.396;2023-04-01T05:21:15;9.90;99.90
19829;DHT22;10075;50.924;4.396;2023-04-01T05:23:42;9.80;99.90
19829;DHT22;10075;50.924;4.396;2023-04-01T05:26:11;9.80;99.90
19829;DHT22;10075;50.924;4.396;2023-04-01T05:28:38;9.90;99.90
19829;DHT22;10075;50.924;4.396;2023-04-01T05:31:07;9.90;99.90
19829;DHT22;10075;50.924;4.396;2023-04-01T05:33:35;9.80;99.90
19829;DHT22;10075;50.924;4.396;2023-04-01T05:36:09;9.90;99.90
19829;DHT22;10075;50.924;4.396;2023-04-01T05:38:36;9.90;99.90
19829;DHT22;10075;50.924;4.396;2023-04-01T05:41:04;9.90;99.90
19829;DHT22;10075;50.924;4.396;2023-04-01T05:43:31;10.00;99.90
19829;DHT22;10075;50.924;4.396;2023-04-01T05:45:58;10.00;99.90
19829;DHT22;10075;50.924;4.396;2023-04-01T05:48:26;9.90;99.90
19829;DHT22;10075;50.924;4.396;2023-04-01T05:50:53;9.90;99.90
19829;DHT22;10075;50.924;4.396;2023-04-01T05:53:20;10.00;99.90
19829;DHT22;10075;50.924;4.396;2023-04-01T05:55:47;10.00;99.90
19829;DHT22;10075;50.924;4.396;2023-04-01T05:58:15;10.00;99.90
19829;DHT22;10075;50.924;4.396;2023-04-01T06:00:42;10.00;99.90
19829;DHT22;10075;50.924;4.396;2023-04-01T06:03:09;9.90;99.90
19829;DHT22;10075;50.924;4.396;2023-04-01T06:05:42;9.90;99.90
19829;DHT22;10075;50.924;4.396;2023-04-01T06:08:13;9.80;99.90
19829;DHT22;10075;50.924;4.396;2023-04-01T06:10:53;9.80;99.90
19829;DHT22;10075;50.924;4.396;2023-04-01T06:13:31;9.80;99.90
19829;DHT22;10075;50.924;4.396;2023-04-01T06:16:10;9.80;99.90
19829;DHT22;10075;50.924;4.396;2023-04-01T06:19:00;9.80;99.90
19829;DHT22;10075;50.924;4.396;2023-04-01T06:21:59;9.70;99.90
19829;DHT22;10075;50.924;4.396;2023-04-01T06:24:39;9.70;99.90
19829;DHT22;10075;50.924;4.396;2023-04-01T06:27:17;9.70;99.90
19829;DHT22;10075;50.924;4.396;2023-04-01T06:30:02;9.70;99.90
19829;DHT22;10075;50.924;4.396;2023-04-01T06:32:53;9.80;99.90
19829;DHT22;10075;50.924;4.396;2023-04-01T06:35:40;9.80;99.90
19829;DHT22;10075;50.924;4.396;2023-04-01T06:38:30;9.90;99.90
19829;DHT22;10075;50.924;4.396;2023-04-01T06:41:26;10.00;99.90
19829;DHT22;10075;50.924;4.396;2023-04-01T06:44:05;10.00;99.90
19829;DHT22;10075;50.924;4.396;2023-04-01T06:46:41;10.00;99.90
19829;DHT22;10075;50.924;4.396;2023-04-01T06:49:30;10.00;99.90
19829;DHT22;10075;50.924;4.396;2023-04-01T06:52:03;10.00;99.90
19829;DHT22;10075;50.924;4.396;2023-04-01T06:54:38;10.00;99.90
19829;DHT22;10075;50.924;4.396;2023-04-01T06:57:18;10.00;99.90
19829;DHT22;10075;50.924;4.396;2023-04-01T06:59:47;10.10;99.90
19829;DHT22;10075;50.924;4.396;2023-04-01T07:02:23;10.00;99.90
19829;DHT22;10075;50.924;4.396;2023-04-01T07:04:53;10.00;99.90
19829;DHT22;10075;50.924;4.396;2023-04-01T07:07:31;10.10;99.90
19829;DHT22;10075;50.924;4.396;2023-04-01T07:10:05;10.10;99.90
19829;DHT22;10075;50.924;4.396;2023-04-01T07:12:40;10.20;99.90
19829;DHT22;10075;50.924;4.396;2023-04-01T07:15:16;10.30;99.90
19829;DHT22;10075;50.924;4.396;2023-04-01T07:17:45;10.20;99.90
19829;DHT22;10075;50.924;4.396;2023-04-01T07:20:17;10.10;99.90
19829;DHT22;10075;50.924;4.396;2023-04-01T07:22:49;9.90;99.90
19829;DHT22;10075;50.924;4.396;2023-04-01T07:25:21;10.10;99.90
19829;DHT22;10075;50.924;4.396;2023-04-01T07:27:52;10.20;99.90
19829;DHT22;10075;50.924;4.396;2023-04-01T07:30:22;10.10;99.90
19829;DHT22;10075;50.924;4.396;2023-04-01T07:32:53;10.20;99.90
19829;DHT22;10075;50.924;4.396;2023-04-01T07:35:26;10.30;99.90
19829;DHT22;10075;50.924;4.396;2023-04-01T07:38:06;10.30;99.90
19829;DHT22;10075;50.924;4.396;2023-04-01T07:40:42;10.30;99.90
19829;DHT22;10075;50.924;4.396;2023-04-01T07:43:32;10.30;99.90
19829;DHT22;10075;50.924;4.396;2023-04-01T07:46:11;10.40;99.90
19829;DHT22;10075;50.924;4.396;2023-04-01T07:48:47;10.40;99.90
19829;DHT22;10075;50.924;4.396;2023-04-01T07:51:20;10.40;99.90
19829;DHT22;10075;50.924;4.396;2023-04-01T07:53:51;10.50;99.90
19829;DHT22;10075;50.924;4.396;2023-04-01T07:56:25;10.70;99.90
19829;DHT22;10075;50.924;4.396;2023-04-01T07:59:02;10.90;99.90
19829;DHT22;10075;50.924;4.396;2023-04-01T08:01:37;10.90;99.90
19829;DHT22;10075;50.924;4.396;2023-04-01T08:04:21;10.90;99.90
19829;DHT22;10075;50.924;4.396;2023-04-01T08:06:54;10.80;99.90
19829;DHT22;10075;50.924;4.396;2023-04-01T08:09:27;10.80;99.90
19829;DHT22;10075;50.924;4.396;2023-04-01T08:12:09;10.80;99.90
19829;DHT22;10075;50.924;4.396;2023-04-01T08:14:48;11.00;99.90
19829;DHT22;10075;50.924;4.396;2023-04-01T08:17:26;11.00;99.90
19829;DHT22;10075;50.924;4.396;2023-04-01T08:20:04;11.10;99.90
19829;DHT22;10075;50.924;4.396;2023-04-01T08:22:39;11.10;99.90
19829;DHT22;10075;50.924;4.396;2023-04-01T08:25:13;11.00;99.90
19829;DHT22;10075;50.924;4.396;2023-04-01T08:27:47;10.80;99.90
19829;DHT22;10075;50.924;4.396;2023-04-01T08:30:19;10.80;99.90
19829;DHT22;10075;50.924;4.396;2023-04-01T08:32:50;10.90;99.90
19829;DHT22;10075;50.924;4.396;2023-04-01T08:35:26;11.00;99.90
19829;DHT22;10075;50.924;4.396;2023-04-01T08:37:55;11.10;99.90
19829;DHT22;10075;50.924;4.396;2023-04-01T08:40:55;11.10;99.90
19829;DHT22;10075;50.924;4.396;2023-04-01T08:47:08;11.40;99.90
19829;DHT22;10075;50.924;4.396;2023-04-01T08:50:04;11.30;99.90
19829;DHT22;10075;50.924;4.396;2023-04-01T08:52:35;11.50;99.90
19829;DHT22;10075;50.924;4.396;2023-04-01T08:58:23;11.50;99.90
19829;DHT22;10075;50.924;4.396;2023-04-01T09:01:02;11.50;99.90
19829;DHT22;10075;50.924;4.396;2023-04-01T09:04:08;11.40;99.90
19829;DHT22;10075;50.924;4.396;2023-04-01T09:06:51;11.50;99.90
19829;DHT22;10075;50.924;4.396;2023-04-01T09:09:49;11.60;99.90
19829;DHT22;10075;50.924;4.396;2023-04-01T09:12:41;11.70;99.90
19829;DHT22;10075;50.924;4.396;2023-04-01T09:15:34;11.60;99.90
19829;DHT22;10075;50.924;4.396;2023-04-01T09:21:23;11.40;99.90
19829;DHT22;10075;50.924;4.396;2023-04-01T09:27:04;11.50;99.90
19829;DHT22;10075;50.924;4.396;2023-04-01T09:29:53;11.50;99.90
19829;DHT22;10075;50.924;4.396;2023-04-01T09:35:24;11.40;99.90
19829;DHT22;10075;50.924;4.396;2023-04-01T09:38:03;11.30;99.90
19829;DHT22;10075;50.924;4.396;2023-04-01T09:40:37;11.30;99.90
19829;DHT22;10075;50.924;4.396;2023-04-01T09:43:33;11.30;99.90
19829;DHT22;10075;50.924;4.396;2023-04-01T09:46:18;11.40;99.90
19829;DHT22;10075;50.924;4.396;2023-04-01T09:52:01;11.30;99.90
19829;DHT22;10075;50.924;4.396;2023-04-01T09:54:43;11.40;99.90
19829;DHT22;10075;50.924;4.396;2023-04-01T09:57:58;11.40;99.90
19829;DHT22;10075;50.924;4.396;2023-04-01T10:07:27;11.60;99.90
19829;DHT22;10075;50.924;4.396;2023-04-01T10:10:28;11.50;99.90
19829;DHT22;10075;50.924;4.396;2023-04-01T10:16:30;11.20;99.90
19829;DHT22;10075;50.924;4.396;2023-04-01T10:19:28;11.50;99.90
19829;DHT22;10075;50.924;4.396;2023-04-01T10:22:16;11.60;99.90
19829;DHT22;10075;50.924;4.396;2023-04-01T10:25:15;11.80;99.90
19829;DHT22;10075;50.924;4.396;2023-04-01T10:31:10;12.10;99.90
19829;DHT22;10075;50.924;4.396;2023-04-01T10:34:01;11.90;99.90
19829;DHT22;10075;50.924;4.396;2023-04-01T10:36:47;12.10;99.90
19829;DHT22;10075;50.924;4.396;2023-04-01T10:42:51;12.30;99.90
19829;DHT22;10075;50.924;4.396;2023-04-01T10:45:49;12.20;99.90
19829;DHT22;10075;50.924;4.396;2023-04-01T10:48:51;12.30;99.90
19829;DHT22;10075;50.924;4.396;2023-04-01T10:51:36;12.40;99.90
19829;DHT22;10075;50.924;4.396;2023-04-01T10:54:18;12.20;99.90
19829;DHT22;10075;50.924;4.396;2023-04-01T10:56:57;12.00;99.90
19829;DHT22;10075;50.924;4.396;2023-04-01T11:00:01;11.90;99.90
19829;DHT22;10075;50.924;4.396;2023-04-01T11:09:04;11.30;99.90
19829;DHT22;10075;50.924;4.396;2023-04-01T11:15:24;11.60;99.90
19829;DHT22;10075;50.924;4.396;2023-04-01T11:18:21;11.80;99.90
19829;DHT22;10075;50.924;4.396;2023-04-01T11:21:46;11.90;99.90
19829;DHT22;10075;50.924;4.396;2023-04-01T11:24:34;12.00;99.90
19829;DHT22;10075;50.924;4.396;2023-04-01T11:27:16;12.10;99.90
19829;DHT22;10075;50.924;4.396;2023-04-01T11:30:11;12.00;99.90
19829;DHT22;10075;50.924;4.396;2023-04-01T11:32:50;11.60;99.90
19829;DHT22;10075;50.924;4.396;2023-04-01T11:35:58;11.50;99.90
19829;DHT22;10075;50.924;4.396;2023-04-01T11:38:54;11.80;99.90
19829;DHT22;10075;50.924;4.396;2023-04-01T11:41:30;11.70;99.90
19829;DHT22;10075;50.924;4.396;2023-04-01T11:44:11;11.40;99.90
19829;DHT22;10075;50.924;4.396;2023-04-01T11:46:54;11.60;99.90
19829;DHT22;10075;50.924;4.396;2023-04-01T11:49:47;11.70;99.90
19829;DHT22;10075;50.924;4.396;2023-04-01T11:52:38;11.80;99.90
19829;DHT22;10075;50.924;4.396;2023-04-01T11:55:31;11.60;99.90
19829;DHT22;10075;50.924;4.396;2023-04-01T11:58:20;11.50;99.90
19829;DHT22;10075;50.924;4.396;2023-04-01T12:01:29;11.70;99.90
19829;DHT22;10075;50.924;4.396;2023-04-01T12:07:06;11.80;99.90
19829;DHT22;10075;50.924;4.396;2023-04-01T12:09:44;11.60;99.90
19829;DHT22;10075;50.924;4.396;2023-04-01T12:12:23;11.70;99.90
19829;DHT22;10075;50.924;4.396;2023-04-01T12:15:03;11.60;99.90
19829;DHT22;10075;50.924;4.396;2023-04-01T12:17:41;11.40;99.90
19829;DHT22;10075;50.924;4.396;2023-04-01T12:20:29;11.40;99.90
19829;DHT22;10075;50.924;4.396;2023-04-01T12:23:07;11.80;99.90
19829;DHT22;10075;50.924;4.396;2023-04-01T12:26:00;11.90;99.90
19829;DHT22;10075;50.924;4.396;2023-04-01T12:28:41;12.10;99.90
19829;DHT22;10075;50.924;4.396;2023-04-01T12:31:26;12.00;99.90
19829;DHT22;10075;50.924;4.396;2023-04-01T12:34:28;11.90;99.90
19829;DHT22;10075;50.924;4.396;2023-04-01T12:37:06;11.80;99.90
19829;DHT22;10075;50.924;4.396;2023-04-01T12:42:50;11.50;99.90
19829;DHT22;10075;50.924;4.396;2023-04-01T12:45:39;11.30;99.90
19829;DHT22;10075;50.924;4.396;2023-04-01T12:48:35;11.30;99.90
19829;DHT22;10075;50.924;4.396;2023-04-01T12:51:27;11.40;99.90
19829;DHT22;10075;50.924;4.396;2023-04-01T12:54:35;11.30;99.90
19829;DHT22;10075;50.924;4.396;2023-04-01T12:57:20;11.40;99.90
19829;DHT22;10075;50.924;4.396;2023-04-01T13:00:03;11.40;99.90
19829;DHT22;10075;50.924;4.396;2023-04-01T13:02:46;11.60;99.90
19829;DHT22;10075;50.924;4.396;2023-04-01T13:05:39;11.60;99.90
19829;DHT22;10075;50.924;4.396;2023-04-01T13:08:29;11.80;99.90
19829;DHT22;10075;50.924;4.396;2023-04-01T13:11:09;11.60;99.90
19829;DHT22;10075;50.924;4.396;2023-04-01T13:14:09;11.60;99.90
19829;DHT22;10075;50.924;4.396;2023-04-01T13:16:45;11.70;99.90
19829;DHT22;10075;50.924;4.396;2023-04-01T13:19:17;11.60;99.90
19829;DHT22;10075;50.924;4.396;2023-04-01T13:21:52;11.60;99.90
19829;DHT22;10075;50.924;4.396;2023-04-01T13:24:39;11.40;99.90
19829;DHT22;10075;50.924;4.396;2023-04-01T13:27:14;11.30;99.90
19829;DHT22;10075;50.924;4.396;2023-04-01T13:29:47;11.40;99.90
19829;DHT22;10075;50.924;4.396;2023-04-01T13:32:22;11.50;99.90
19829;DHT22;10075;50.924;4.396;2023-04-01T13:38:13;11.80;99.90
19829;DHT22;10075;50.924;4.396;2023-04-01T13:40:51;12.00;99.90
19829;DHT22;10075;50.924;4.396;2023-04-01T13:43:23;11.90;99.90
19829;DHT22;10075;50.924;4.396;2023-04-01T13:46:33;11.80;99.90
19829;DHT22;10075;50.924;4.396;2023-04-01T13:49:25;12.00;99.90
19829;DHT22;10075;50.924;4.396;2023-04-01T13:52:10;12.10;99.90
19829;DHT22;10075;50.924;4.396;2023-04-01T13:55:18;12.20;99.90
19829;DHT22;10075;50.924;4.396;2023-04-01T13:58:07;12.20;99.90
19829;DHT22;10075;50.924;4.396;2023-04-01T14:00:51;12.20;99.90
19829;DHT22;10075;50.924;4.396;2023-04-01T14:03:30;12.10;99.90
19829;DHT22;10075;50.924;4.396;2023-04-01T14:06:06;11.70;99.90
19829;DHT22;10075;50.924;4.396;2023-04-01T14:08:47;11.60;99.90
19829;DHT22;10075;50.924;4.396;2023-04-01T14:11:25;11.80;99.90
19829;DHT22;10075;50.924;4.396;2023-04-01T14:14:03;11.60;99.90
19829;DHT22;10075;50.924;4.396;2023-04-01T14:16:55;11.70;99.90
19829;DHT22;10075;50.924;4.396;2023-04-01T14:19:30;11.90;99.90
19829;DHT22;10075;50.924;4.396;2023-04-01T14:22:08;12.10;99.90
19829;DHT22;10075;50.924;4.396;2023-04-01T14:24:50;12.00;99.90
19829;DHT22;10075;50.924;4.396;2023-04-01T14:27:49;11.90;99.90
19829;DHT22;10075;50.924;4.396;2023-04-01T14:30:50;11.90;99.90
19829;DHT22;10075;50.924;4.396;2023-04-01T14:33:34;12.00;99.90
19829;DHT22;10075;50.924;4.396;2023-04-01T14:36:28;12.10;99.90
19829;DHT22;10075;50.924;4.396;2023-04-01T14:39:06;12.10;99.90
19829;DHT22;10075;50.924;4.396;2023-04-01T14:41:43;12.10;99.90
19829;DHT22;10075;50.924;4.396;2023-04-01T14:44:35;12.10;99.90
19829;DHT22;10075;50.924;4.396;2023-04-01T14:50:14;12.40;99.90
19829;DHT22;10075;50.924;4.396;2023-04-01T14:52:44;12.40;99.90
19829;DHT22;10075;50.924;4.396;2023-04-01T14:55:25;12.40;99.90
19829;DHT22;10075;50.924;4.396;2023-04-01T14:58:12;12.50;99.90
19829;DHT22;10075;50.924;4.396;2023-04-01T15:00:51;12.70;99.90
19829;DHT22;10075;50.924;4.396;2023-04-01T15:03:25;12.20;99.90
19829;DHT22;10075;50.924;4.396;2023-04-01T15:06:11;12.00;99.90
19829;DHT22;10075;50.924;4.396;2023-04-01T15:08:49;12.00;99.90
19829;DHT22;10075;50.924;4.396;2023-04-01T15:11:34;12.00;99.90
19829;DHT22;10075;50.924;4.396;2023-04-01T15:17:05;12.40;99.90
19829;DHT22;10075;50.924;4.396;2023-04-01T15:19:53;12.10;99.90
19829;DHT22;10075;50.924;4.396;2023-04-01T15:22:37;12.10;99.90
19829;DHT22;10075;50.924;4.396;2023-04-01T15:25:24;12.10;99.90
19829;DHT22;10075;50.924;4.396;2023-04-01T15:28:01;11.90;99.90
19829;DHT22;10075;50.924;4.396;2023-04-01T15:30:33;11.90;99.90
19829;DHT22;10075;50.924;4.396;2023-04-01T15:33:21;11.70;99.90
19829;DHT22;10075;50.924;4.396;2023-04-01T15:35:57;11.70;99.90
19829;DHT22;10075;50.924;4.396;2023-04-01T15:38:34;11.70;99.90
19829;DHT22;10075;50.924;4.396;2023-04-01T15:41:11;11.60;99.90
19829;DHT22;10075;50.924;4.396;2023-04-01T15:43:42;11.30;99.90
19829;DHT22;10075;50.924;4.396;2023-04-01T15:49:03;11.20;99.90
19829;DHT22;10075;50.924;4.396;2023-04-01T15:54:47;11.10;99.90
19829;DHT22;10075;50.924;4.396;2023-04-01T15:57:32;10.90;99.90
19829;DHT22;10075;50.924;4.396;2023-04-01T16:00:10;10.90;99.90
19829;DHT22;10075;50.924;4.396;2023-04-01T16:02:44;10.90;99.90
19829;DHT22;10075;50.924;4.396;2023-04-01T16:05:31;10.80;99.90
19829;DHT22;10075;50.924;4.396;2023-04-01T16:08:23;10.60;99.90
19829;DHT22;10075;50.924;4.396;2023-04-01T16:11:02;10.50;99.90
19829;DHT22;10075;50.924;4.396;2023-04-01T16:13:42;10.60;99.90
19829;DHT22;10075;50.924;4.396;2023-04-01T16:16:19;10.60;99.90
19829;DHT22;10075;50.924;4.396;2023-04-01T16:19:24;10.60;99.90
19829;DHT22;10075;50.924;4.396;2023-04-01T16:21:57;10.60;99.90
19829;DHT22;10075;50.924;4.396;2023-04-01T16:24:32;10.80;99.90
19829;DHT22;10075;50.924;4.396;2023-04-01T16:27:06;10.80;99.90
19829;DHT22;10075;50.924;4.396;2023-04-01T16:29:40;10.60;99.90
19829;DHT22;10075;50.924;4.396;2023-04-01T16:32:23;10.60;99.90
19829;DHT22;10075;50.924;4.396;2023-04-01T16:35:03;10.50;99.90
19829;DHT22;10075;50.924;4.396;2023-04-01T16:37:37;10.30;99.90
19829;DHT22;10075;50.924;4.396;2023-04-01T16:40:15;10.10;99.90
19829;DHT22;10075;50.924;4.396;2023-04-01T16:42:49;10.00;99.90
19829;DHT22;10075;50.924;4.396;2023-04-01T16:45:26;10.10;99.90
19829;DHT22;10075;50.924;4.396;2023-04-01T16:48:01;10.00;99.90
19829;DHT22;10075;50.924;4.396;2023-04-01T16:50:44;9.90;99.90
19829;DHT22;10075;50.924;4.396;2023-04-01T16:53:19;9.90;99.90
19829;DHT22;10075;50.924;4.396;2023-04-01T16:55:51;10.00;99.90
19829;DHT22;10075;50.924;4.396;2023-04-01T16:58:25;9.80;99.90
19829;DHT22;10075;50.924;4.396;2023-04-01T17:01:00;9.80;99.90
19829;DHT22;10075;50.924;4.396;2023-04-01T17:03:33;9.70;99.90
19829;DHT22;10075;50.924;4.396;2023-04-01T17:06:20;9.60;99.90
19829;DHT22;10075;50.924;4.396;2023-04-01T17:09:06;9.50;99.90
19829;DHT22;10075;50.924;4.396;2023-04-01T17:11:40;9.50;99.90
19829;DHT22;10075;50.924;4.396;2023-04-01T17:14:20;9.50;99.90
19829;DHT22;10075;50.924;4.396;2023-04-01T17:17:06;9.70;99.90
19829;DHT22;10075;50.924;4.396;2023-04-01T17:19:49;9.80;99.90
19829;DHT22;10075;50.924;4.396;2023-04-01T17:22:31;10.00;99.90
19829;DHT22;10075;50.924;4.396;2023-04-01T17:25:13;10.20;99.90
19829;DHT22;10075;50.924;4.396;2023-04-01T17:27:50;10.30;99.90
19829;DHT22;10075;50.924;4.396;2023-04-01T17:30:24;10.20;99.90
19829;DHT22;10075;50.924;4.396;2023-04-01T17:33:16;10.10;99.90
19829;DHT22;10075;50.924;4.396;2023-04-01T17:35:54;9.90;99.90
19829;DHT22;10075;50.924;4.396;2023-04-01T17:38:38;9.80;99.90
19829;DHT22;10075;50.924;4.396;2023-04-01T17:41:15;9.80;99.90
19829;DHT22;10075;50.924;4.396;2023-04-01T17:43:52;9.80;99.90
19829;DHT22;10075;50.924;4.396;2023-04-01T17:46:30;9.80;99.90